Allisonia, Virginia
Current Conditions -  °F | °C
As of 3:35 PM on Tuesday 21 Oct 2014 (Local Time) from KPSK Reporting Station
Overcast Overcast  
Wind Chill: 57°   Ceiling: 6000
Heat Index: 57°   Visibility: 10mi
Dew Point: 42°   Wind: 16mph
Humidity: 57%   Direction: 290°WNW
Pressure: 29.93"   Gusts: NA
Location:  36.9752°N, 80.6434°W
Report Text: KPSK 211935Z AUTO 29014KT 10SM OVC060 14/05 A2993 RMK AO2 T01370053
Loading
Personal Weather Stations






























Interactive Weather Map
Tropical Storm Tracking
New forecast layout! Learn more

10-Day Weather Forecast

Advertisements
Track Severe Weather on mobile